sensor_id;sensor_type;location;lat;lon;timestamp;P1;durP1;ratioP1;P2;durP2;ratioP2
75820;SDS011;64454;51.984;9.838;2024-01-30T00:02:11;7.55;;;6.10;;
75820;SDS011;64454;51.984;9.838;2024-01-30T00:04:37;6.40;;;5.60;;
75820;SDS011;64454;51.984;9.838;2024-01-30T00:07:03;6.78;;;5.53;;
75820;SDS011;64454;51.984;9.838;2024-01-30T00:09:29;8.53;;;5.90;;
75820;SDS011;64454;51.984;9.838;2024-01-30T00:11:55;6.72;;;5.70;;
75820;SDS011;64454;51.984;9.838;2024-01-30T00:14:22;8.00;;;5.80;;
75820;SDS011;64454;51.984;9.838;2024-01-30T00:16:48;6.30;;;5.30;;
75820;SDS011;64454;51.984;9.838;2024-01-30T00:19:16;9.30;;;6.40;;
75820;SDS011;64454;51.984;9.838;2024-01-30T00:21:43;9.45;;;6.13;;
75820;SDS011;64454;51.984;9.838;2024-01-30T00:24:09;7.95;;;5.97;;
75820;SDS011;64454;51.984;9.838;2024-01-30T00:26:35;7.90;;;6.18;;
75820;SDS011;64454;51.984;9.838;2024-01-30T00:29:01;7.33;;;5.93;;
75820;SDS011;64454;51.984;9.838;2024-01-30T00:31:27;7.80;;;6.38;;
75820;SDS011;64454;51.984;9.838;2024-01-30T00:33:54;7.22;;;6.03;;
75820;SDS011;64454;51.984;9.838;2024-01-30T00:36:21;6.70;;;6.00;;
75820;SDS011;64454;51.984;9.838;2024-01-30T00:38:47;7.63;;;6.10;;
75820;SDS011;64454;51.984;9.838;2024-01-30T00:41:13;8.30;;;5.75;;
75820;SDS011;64454;51.984;9.838;2024-01-30T00:43:42;8.38;;;5.90;;
75820;SDS011;64454;51.984;9.838;2024-01-30T00:46:08;8.07;;;5.90;;
75820;SDS011;64454;51.984;9.838;2024-01-30T00:48:34;6.63;;;5.57;;
75820;SDS011;64454;51.984;9.838;2024-01-30T00:51:00;7.88;;;6.20;;
75820;SDS011;64454;51.984;9.838;2024-01-30T00:53:27;7.05;;;5.60;;
75820;SDS011;64454;51.984;9.838;2024-01-30T00:55:53;7.25;;;5.65;;
75820;SDS011;64454;51.984;9.838;2024-01-30T00:58:19;7.40;;;5.60;;
75820;SDS011;64454;51.984;9.838;2024-01-30T01:00:45;7.40;;;5.85;;
75820;SDS011;64454;51.984;9.838;2024-01-30T01:03:12;8.32;;;5.70;;
75820;SDS011;64454;51.984;9.838;2024-01-30T01:05:39;7.50;;;5.88;;
75820;SDS011;64454;51.984;9.838;2024-01-30T01:08:05;7.73;;;5.53;;
75820;SDS011;64454;51.984;9.838;2024-01-30T01:10:32;6.95;;;5.40;;
75820;SDS011;64454;51.984;9.838;2024-01-30T01:12:58;7.20;;;5.10;;
75820;SDS011;64454;51.984;9.838;2024-01-30T01:15:24;7.23;;;5.90;;
75820;SDS011;64454;51.984;9.838;2024-01-30T01:17:50;7.10;;;5.45;;
75820;SDS011;64454;51.984;9.838;2024-01-30T01:20:16;8.00;;;6.45;;
75820;SDS011;64454;51.984;9.838;2024-01-30T01:22:43;8.50;;;5.50;;
75820;SDS011;64454;51.984;9.838;2024-01-30T01:25:09;7.28;;;5.78;;
75820;SDS011;64454;51.984;9.838;2024-01-30T01:27:36;7.15;;;5.20;;
75820;SDS011;64454;51.984;9.838;2024-01-30T01:30:06;6.88;;;5.25;;
75820;SDS011;64454;51.984;9.838;2024-01-30T01:32:35;7.60;;;5.57;;
75820;SDS011;64454;51.984;9.838;2024-01-30T01:35:01;7.83;;;5.93;;
75820;SDS011;64454;51.984;9.838;2024-01-30T01:37:30;7.70;;;6.40;;
75820;SDS011;64454;51.984;9.838;2024-01-30T01:39:57;7.03;;;5.88;;
75820;SDS011;64454;51.984;9.838;2024-01-30T01:42:23;7.90;;;5.70;;
75820;SDS011;64454;51.984;9.838;2024-01-30T01:44:49;8.05;;;5.85;;
75820;SDS011;64454;51.984;9.838;2024-01-30T01:47:16;7.00;;;5.35;;
75820;SDS011;64454;51.984;9.838;2024-01-30T01:49:42;8.60;;;5.50;;
75820;SDS011;64454;51.984;9.838;2024-01-30T01:52:08;7.77;;;5.90;;
75820;SDS011;64454;51.984;9.838;2024-01-30T01:54:35;7.43;;;5.70;;
75820;SDS011;64454;51.984;9.838;2024-01-30T01:57:01;6.82;;;5.60;;
75820;SDS011;64454;51.984;9.838;2024-01-30T01:59:28;6.15;;;5.15;;
75820;SDS011;64454;51.984;9.838;2024-01-30T02:01:56;6.20;;;5.37;;
75820;SDS011;64454;51.984;9.838;2024-01-30T02:04:22;6.05;;;5.45;;
75820;SDS011;64454;51.984;9.838;2024-01-30T02:06:48;7.22;;;6.00;;
75820;SDS011;64454;51.984;9.838;2024-01-30T02:09:15;7.50;;;5.78;;
75820;SDS011;64454;51.984;9.838;2024-01-30T02:11:41;7.50;;;5.72;;
75820;SDS011;64454;51.984;9.838;2024-01-30T02:14:07;7.25;;;4.78;;
75820;SDS011;64454;51.984;9.838;2024-01-30T02:16:34;7.38;;;5.57;;
75820;SDS011;64454;51.984;9.838;2024-01-30T02:19:00;6.38;;;5.40;;
75820;SDS011;64454;51.984;9.838;2024-01-30T02:21:27;7.05;;;5.50;;
75820;SDS011;64454;51.984;9.838;2024-01-30T02:23:54;7.82;;;5.40;;
75820;SDS011;64454;51.984;9.838;2024-01-30T02:26:20;7.88;;;5.88;;
75820;SDS011;64454;51.984;9.838;2024-01-30T02:28:46;7.53;;;5.63;;
75820;SDS011;64454;51.984;9.838;2024-01-30T02:31:12;6.57;;;5.13;;
75820;SDS011;64454;51.984;9.838;2024-01-30T02:33:38;8.07;;;5.60;;
75820;SDS011;64454;51.984;9.838;2024-01-30T02:36:05;6.43;;;5.53;;
75820;SDS011;64454;51.984;9.838;2024-01-30T02:38:32;7.32;;;5.00;;
75820;SDS011;64454;51.984;9.838;2024-01-30T02:40:58;6.80;;;5.25;;
75820;SDS011;64454;51.984;9.838;2024-01-30T02:43:24;8.20;;;5.20;;
75820;SDS011;64454;51.984;9.838;2024-01-30T02:45:50;7.18;;;5.20;;
75820;SDS011;64454;51.984;9.838;2024-01-30T02:48:16;7.53;;;5.43;;
75820;SDS011;64454;51.984;9.838;2024-01-30T02:50:42;6.60;;;4.97;;
75820;SDS011;64454;51.984;9.838;2024-01-30T02:53:09;7.28;;;5.55;;
75820;SDS011;64454;51.984;9.838;2024-01-30T02:55:35;5.80;;;4.93;;
75820;SDS011;64454;51.984;9.838;2024-01-30T02:58:01;6.72;;;5.25;;
75820;SDS011;64454;51.984;9.838;2024-01-30T03:00:28;5.93;;;4.78;;
75820;SDS011;64454;51.984;9.838;2024-01-30T03:02:54;6.97;;;5.25;;
75820;SDS011;64454;51.984;9.838;2024-01-30T03:05:20;8.00;;;5.10;;
75820;SDS011;64454;51.984;9.838;2024-01-30T03:07:46;6.93;;;5.25;;
75820;SDS011;64454;51.984;9.838;2024-01-30T03:10:12;10.80;;;7.40;;
75820;SDS011;64454;51.984;9.838;2024-01-30T03:12:39;10.32;;;7.28;;
75820;SDS011;64454;51.984;9.838;2024-01-30T03:15:05;7.45;;;6.10;;
75820;SDS011;64454;51.984;9.838;2024-01-30T03:17:32;6.03;;;5.30;;
75820;SDS011;64454;51.984;9.838;2024-01-30T03:19:58;8.13;;;5.90;;
75820;SDS011;64454;51.984;9.838;2024-01-30T03:22:24;7.35;;;5.30;;
75820;SDS011;64454;51.984;9.838;2024-01-30T03:24:50;8.25;;;5.32;;
75820;SDS011;64454;51.984;9.838;2024-01-30T03:27:16;8.35;;;6.22;;
75820;SDS011;64454;51.984;9.838;2024-01-30T03:29:43;7.97;;;5.90;;
75820;SDS011;64454;51.984;9.838;2024-01-30T03:32:09;6.63;;;5.63;;
75820;SDS011;64454;51.984;9.838;2024-01-30T03:34:35;7.13;;;5.50;;
75820;SDS011;64454;51.984;9.838;2024-01-30T03:37:01;6.35;;;5.65;;
75820;SDS011;64454;51.984;9.838;2024-01-30T03:39:28;6.37;;;5.27;;
75820;SDS011;64454;51.984;9.838;2024-01-30T03:41:54;8.38;;;5.40;;
75820;SDS011;64454;51.984;9.838;2024-01-30T03:44:20;7.60;;;5.68;;
75820;SDS011;64454;51.984;9.838;2024-01-30T03:46:47;7.68;;;5.60;;
75820;SDS011;64454;51.984;9.838;2024-01-30T03:49:13;8.45;;;6.00;;
75820;SDS011;64454;51.984;9.838;2024-01-30T03:51:39;8.20;;;5.50;;
75820;SDS011;64454;51.984;9.838;2024-01-30T03:54:05;8.50;;;6.20;;
75820;SDS011;64454;51.984;9.838;2024-01-30T03:56:32;7.70;;;6.05;;
75820;SDS011;64454;51.984;9.838;2024-01-30T03:58:58;6.75;;;5.60;;
75820;SDS011;64454;51.984;9.838;2024-01-30T04:01:25;8.43;;;5.50;;
75820;SDS011;64454;51.984;9.838;2024-01-30T04:03:52;8.35;;;6.07;;
75820;SDS011;64454;51.984;9.838;2024-01-30T04:06:18;6.93;;;6.10;;
75820;SDS011;64454;51.984;9.838;2024-01-30T04:08:45;7.50;;;5.50;;
75820;SDS011;64454;51.984;9.838;2024-01-30T04:11:11;7.63;;;5.75;;
75820;SDS011;64454;51.984;9.838;2024-01-30T04:13:37;7.65;;;5.20;;
75820;SDS011;64454;51.984;9.838;2024-01-30T04:16:03;6.90;;;5.82;;
75820;SDS011;64454;51.984;9.838;2024-01-30T04:18:30;8.07;;;6.07;;
75820;SDS011;64454;51.984;9.838;2024-01-30T04:20:58;8.18;;;5.80;;
75820;SDS011;64454;51.984;9.838;2024-01-30T04:23:24;6.53;;;5.82;;
75820;SDS011;64454;51.984;9.838;2024-01-30T04:25:50;7.55;;;5.70;;
75820;SDS011;64454;51.984;9.838;2024-01-30T04:28:16;7.25;;;5.63;;
75820;SDS011;64454;51.984;9.838;2024-01-30T04:30:43;8.00;;;5.53;;
75820;SDS011;64454;51.984;9.838;2024-01-30T04:33:10;6.53;;;5.88;;
75820;SDS011;64454;51.984;9.838;2024-01-30T04:35:36;8.23;;;6.07;;
75820;SDS011;64454;51.984;9.838;2024-01-30T04:38:03;7.82;;;6.10;;
75820;SDS011;64454;51.984;9.838;2024-01-30T04:40:29;8.40;;;6.20;;
75820;SDS011;64454;51.984;9.838;2024-01-30T04:42:55;9.00;;;5.85;;
75820;SDS011;64454;51.984;9.838;2024-01-30T04:45:21;8.95;;;6.40;;
75820;SDS011;64454;51.984;9.838;2024-01-30T04:47:48;7.70;;;5.70;;
75820;SDS011;64454;51.984;9.838;2024-01-30T04:50:14;11.93;;;6.80;;
75820;SDS011;64454;51.984;9.838;2024-01-30T04:52:40;8.93;;;6.67;;
75820;SDS011;64454;51.984;9.838;2024-01-30T04:55:07;8.38;;;6.25;;
75820;SDS011;64454;51.984;9.838;2024-01-30T04:57:34;11.03;;;6.40;;
75820;SDS011;64454;51.984;9.838;2024-01-30T05:00:00;10.25;;;6.75;;
75820;SDS011;64454;51.984;9.838;2024-01-30T05:02:27;10.18;;;6.70;;
75820;SDS011;64454;51.984;9.838;2024-01-30T05:04:53;6.28;;;5.22;;
75820;SDS011;64454;51.984;9.838;2024-01-30T05:07:19;8.30;;;6.60;;
75820;SDS011;64454;51.984;9.838;2024-01-30T05:09:45;9.43;;;6.53;;
75820;SDS011;64454;51.984;9.838;2024-01-30T05:12:12;8.60;;;6.47;;
75820;SDS011;64454;51.984;9.838;2024-01-30T05:14:38;8.38;;;6.70;;
75820;SDS011;64454;51.984;9.838;2024-01-30T05:17:04;7.38;;;6.60;;
75820;SDS011;64454;51.984;9.838;2024-01-30T05:19:30;8.50;;;6.40;;
75820;SDS011;64454;51.984;9.838;2024-01-30T05:21:56;8.23;;;5.93;;
75820;SDS011;64454;51.984;9.838;2024-01-30T05:24:23;9.20;;;6.32;;
75820;SDS011;64454;51.984;9.838;2024-01-30T05:26:49;8.32;;;5.78;;
75820;SDS011;64454;51.984;9.838;2024-01-30T05:29:16;8.98;;;6.00;;
75820;SDS011;64454;51.984;9.838;2024-01-30T05:31:42;13.10;;;6.80;;
75820;SDS011;64454;51.984;9.838;2024-01-30T05:34:09;8.40;;;6.00;;
75820;SDS011;64454;51.984;9.838;2024-01-30T05:36:35;14.15;;;7.25;;
75820;SDS011;64454;51.984;9.838;2024-01-30T05:39:01;8.52;;;6.53;;
75820;SDS011;64454;51.984;9.838;2024-01-30T05:41:27;7.40;;;6.57;;
75820;SDS011;64454;51.984;9.838;2024-01-30T05:43:54;9.30;;;6.63;;
75820;SDS011;64454;51.984;9.838;2024-01-30T05:46:21;7.78;;;6.05;;
75820;SDS011;64454;51.984;9.838;2024-01-30T05:48:47;10.98;;;7.28;;
75820;SDS011;64454;51.984;9.838;2024-01-30T05:51:13;7.95;;;5.88;;
75820;SDS011;64454;51.984;9.838;2024-01-30T05:53:39;7.97;;;6.40;;
75820;SDS011;64454;51.984;9.838;2024-01-30T05:56:06;10.20;;;7.00;;
75820;SDS011;64454;51.984;9.838;2024-01-30T05:58:32;8.65;;;6.10;;
75820;SDS011;64454;51.984;9.838;2024-01-30T06:00:58;8.60;;;6.60;;
75820;SDS011;64454;51.984;9.838;2024-01-30T06:03:25;12.40;;;7.20;;
75820;SDS011;64454;51.984;9.838;2024-01-30T06:05:51;9.15;;;6.88;;
75820;SDS011;64454;51.984;9.838;2024-01-30T06:08:18;10.38;;;8.30;;
75820;SDS011;64454;51.984;9.838;2024-01-30T06:10:44;8.60;;;6.60;;
75820;SDS011;64454;51.984;9.838;2024-01-30T06:13:10;8.52;;;6.50;;
75820;SDS011;64454;51.984;9.838;2024-01-30T06:15:36;7.90;;;6.85;;
75820;SDS011;64454;51.984;9.838;2024-01-30T06:18:02;10.73;;;7.00;;
75820;SDS011;64454;51.984;9.838;2024-01-30T06:20:30;8.48;;;6.65;;
75820;SDS011;64454;51.984;9.838;2024-01-30T06:22:56;8.80;;;6.32;;
75820;SDS011;64454;51.984;9.838;2024-01-30T06:25:22;8.68;;;6.45;;
75820;SDS011;64454;51.984;9.838;2024-01-30T06:27:49;9.38;;;6.38;;
75820;SDS011;64454;51.984;9.838;2024-01-30T06:30:15;10.68;;;7.18;;
75820;SDS011;64454;51.984;9.838;2024-01-30T06:32:41;9.73;;;7.10;;
75820;SDS011;64454;51.984;9.838;2024-01-30T06:35:07;7.95;;;5.97;;
75820;SDS011;64454;51.984;9.838;2024-01-30T06:37:36;8.80;;;6.78;;
75820;SDS011;64454;51.984;9.838;2024-01-30T06:40:02;9.32;;;6.53;;
75820;SDS011;64454;51.984;9.838;2024-01-30T06:42:30;12.75;;;7.10;;
75820;SDS011;64454;51.984;9.838;2024-01-30T06:44:56;10.82;;;6.85;;
75820;SDS011;64454;51.984;9.838;2024-01-30T06:47:22;10.52;;;7.15;;
75820;SDS011;64454;51.984;9.838;2024-01-30T06:49:49;18.43;;;12.10;;
75820;SDS011;64454;51.984;9.838;2024-01-30T06:52:15;18.90;;;12.85;;
75820;SDS011;64454;51.984;9.838;2024-01-30T06:54:41;17.65;;;12.20;;
75820;SDS011;64454;51.984;9.838;2024-01-30T06:57:08;16.90;;;10.90;;
75820;SDS011;64454;51.984;9.838;2024-01-30T06:59:36;9.55;;;7.30;;
75820;SDS011;64454;51.984;9.838;2024-01-30T07:02:08;9.20;;;7.30;;
75820;SDS011;64454;51.984;9.838;2024-01-30T07:04:34;10.57;;;7.05;;
75820;SDS011;64454;51.984;9.838;2024-01-30T07:07:02;11.50;;;7.00;;
75820;SDS011;64454;51.984;9.838;2024-01-30T07:09:29;8.77;;;7.20;;
75820;SDS011;64454;51.984;9.838;2024-01-30T07:11:56;9.20;;;7.00;;
75820;SDS011;64454;51.984;9.838;2024-01-30T07:14:23;11.97;;;7.37;;
75820;SDS011;64454;51.984;9.838;2024-01-30T07:16:49;8.10;;;6.85;;
75820;SDS011;64454;51.984;9.838;2024-01-30T07:19:15;10.90;;;7.40;;
75820;SDS011;64454;51.984;9.838;2024-01-30T07:21:41;8.25;;;6.80;;
75820;SDS011;64454;51.984;9.838;2024-01-30T07:24:07;11.93;;;7.32;;
75820;SDS011;64454;51.984;9.838;2024-01-30T07:26:33;8.88;;;7.30;;
75820;SDS011;64454;51.984;9.838;2024-01-30T07:29:01;9.68;;;7.60;;
75820;SDS011;64454;51.984;9.838;2024-01-30T07:31:28;8.77;;;7.07;;
75820;SDS011;64454;51.984;9.838;2024-01-30T07:33:54;10.43;;;7.38;;
75820;SDS011;64454;51.984;9.838;2024-01-30T07:36:20;10.38;;;7.22;;
75820;SDS011;64454;51.984;9.838;2024-01-30T07:38:46;9.13;;;7.13;;
75820;SDS011;64454;51.984;9.838;2024-01-30T07:41:12;9.68;;;6.65;;
75820;SDS011;64454;51.984;9.838;2024-01-30T07:43:38;9.40;;;6.85;;
75820;SDS011;64454;51.984;9.838;2024-01-30T07:46:05;8.50;;;6.90;;
75820;SDS011;64454;51.984;9.838;2024-01-30T07:48:31;9.10;;;6.90;;
75820;SDS011;64454;51.984;9.838;2024-01-30T07:50:58;8.30;;;6.70;;
75820;SDS011;64454;51.984;9.838;2024-01-30T07:53:25;8.85;;;7.40;;
75820;SDS011;64454;51.984;9.838;2024-01-30T07:55:51;9.10;;;7.00;;
75820;SDS011;64454;51.984;9.838;2024-01-30T07:58:17;10.45;;;7.65;;
75820;SDS011;64454;51.984;9.838;2024-01-30T08:00:44;8.90;;;6.93;;
75820;SDS011;64454;51.984;9.838;2024-01-30T08:03:11;8.00;;;7.20;;
75820;SDS011;64454;51.984;9.838;2024-01-30T08:05:37;9.20;;;7.10;;
75820;SDS011;64454;51.984;9.838;2024-01-30T08:08:04;11.27;;;7.57;;
75820;SDS011;64454;51.984;9.838;2024-01-30T08:10:31;9.18;;;6.80;;
75820;SDS011;64454;51.984;9.838;2024-01-30T08:12:57;10.47;;;6.70;;
75820;SDS011;64454;51.984;9.838;2024-01-30T08:15:23;8.18;;;6.70;;
75820;SDS011;64454;51.984;9.838;2024-01-30T08:17:49;9.82;;;6.90;;
75820;SDS011;64454;51.984;9.838;2024-01-30T08:20:21;12.30;;;7.20;;
75820;SDS011;64454;51.984;9.838;2024-01-30T08:22:47;8.50;;;6.70;;
75820;SDS011;64454;51.984;9.838;2024-01-30T08:25:13;8.32;;;6.75;;
75820;SDS011;64454;51.984;9.838;2024-01-30T08:27:39;10.57;;;6.95;;
75820;SDS011;64454;51.984;9.838;2024-01-30T08:30:06;11.50;;;7.50;;
75820;SDS011;64454;51.984;9.838;2024-01-30T08:32:33;9.70;;;6.93;;
75820;SDS011;64454;51.984;9.838;2024-01-30T08:35:00;10.45;;;7.57;;
75820;SDS011;64454;51.984;9.838;2024-01-30T08:37:29;9.50;;;6.70;;
75820;SDS011;64454;51.984;9.838;2024-01-30T08:39:55;9.67;;;6.90;;
75820;SDS011;64454;51.984;9.838;2024-01-30T08:42:21;8.13;;;6.53;;
75820;SDS011;64454;51.984;9.838;2024-01-30T08:44:48;7.72;;;5.93;;
75820;SDS011;64454;51.984;9.838;2024-01-30T08:47:14;9.23;;;6.68;;
75820;SDS011;64454;51.984;9.838;2024-01-30T08:49:42;11.07;;;7.43;;
75820;SDS011;64454;51.984;9.838;2024-01-30T08:52:09;11.57;;;7.30;;
75820;SDS011;64454;51.984;9.838;2024-01-30T08:54:36;8.02;;;6.30;;
75820;SDS011;64454;51.984;9.838;2024-01-30T08:57:02;7.77;;;6.40;;
75820;SDS011;64454;51.984;9.838;2024-01-30T08:59:29;8.60;;;6.80;;
75820;SDS011;64454;51.984;9.838;2024-01-30T09:01:55;10.05;;;7.13;;
75820;SDS011;64454;51.984;9.838;2024-01-30T09:04:23;9.53;;;7.00;;
75820;SDS011;64454;51.984;9.838;2024-01-30T09:06:49;9.40;;;7.18;;
75820;SDS011;64454;51.984;9.838;2024-01-30T09:09:15;9.02;;;7.30;;
75820;SDS011;64454;51.984;9.838;2024-01-30T09:11:42;10.38;;;7.60;;
75820;SDS011;64454;51.984;9.838;2024-01-30T09:14:08;9.17;;;7.30;;
75820;SDS011;64454;51.984;9.838;2024-01-30T09:16:34;10.50;;;7.28;;
75820;SDS011;64454;51.984;9.838;2024-01-30T09:19:00;9.98;;;7.25;;
75820;SDS011;64454;51.984;9.838;2024-01-30T09:21:26;8.50;;;7.30;;
75820;SDS011;64454;51.984;9.838;2024-01-30T09:23:53;10.23;;;7.18;;
75820;SDS011;64454;51.984;9.838;2024-01-30T09:26:20;9.40;;;7.90;;
75820;SDS011;64454;51.984;9.838;2024-01-30T09:28:46;11.40;;;7.97;;
75820;SDS011;64454;51.984;9.838;2024-01-30T09:31:13;11.95;;;8.57;;
75820;SDS011;64454;51.984;9.838;2024-01-30T09:33:39;10.95;;;7.75;;
75820;SDS011;64454;51.984;9.838;2024-01-30T09:36:05;12.45;;;8.32;;
75820;SDS011;64454;51.984;9.838;2024-01-30T09:38:33;8.60;;;7.20;;
75820;SDS011;64454;51.984;9.838;2024-01-30T09:40:59;10.45;;;7.65;;
75820;SDS011;64454;51.984;9.838;2024-01-30T09:43:32;9.02;;;7.25;;
75820;SDS011;64454;51.984;9.838;2024-01-30T09:46:00;9.52;;;7.47;;
75820;SDS011;64454;51.984;9.838;2024-01-30T09:48:29;8.88;;;6.93;;
75820;SDS011;64454;51.984;9.838;2024-01-30T09:50:56;9.77;;;7.50;;
75820;SDS011;64454;51.984;9.838;2024-01-30T09:53:23;8.00;;;7.10;;
75820;SDS011;64454;51.984;9.838;2024-01-30T09:55:50;9.05;;;6.50;;
75820;SDS011;64454;51.984;9.838;2024-01-30T09:58:16;9.70;;;7.40;;
75820;SDS011;64454;51.984;9.838;2024-01-30T10:00:42;9.48;;;7.25;;
75820;SDS011;64454;51.984;9.838;2024-01-30T10:03:09;8.50;;;6.70;;
75820;SDS011;64454;51.984;9.838;2024-01-30T10:05:35;9.85;;;7.45;;
75820;SDS011;64454;51.984;9.838;2024-01-30T10:08:05;10.50;;;6.97;;
75820;SDS011;64454;51.984;9.838;2024-01-30T10:10:33;9.98;;;7.95;;
75820;SDS011;64454;51.984;9.838;2024-01-30T10:12:59;10.20;;;7.55;;
75820;SDS011;64454;51.984;9.838;2024-01-30T10:15:25;9.23;;;6.70;;
75820;SDS011;64454;51.984;9.838;2024-01-30T10:17:53;9.07;;;6.80;;
75820;SDS011;64454;51.984;9.838;2024-01-30T10:20:20;8.75;;;7.10;;
75820;SDS011;64454;51.984;9.838;2024-01-30T10:22:47;9.60;;;7.30;;
75820;SDS011;64454;51.984;9.838;2024-01-30T10:25:14;7.93;;;6.80;;
75820;SDS011;64454;51.984;9.838;2024-01-30T10:27:40;10.73;;;7.68;;
75820;SDS011;64454;51.984;9.838;2024-01-30T10:30:07;9.47;;;7.13;;
75820;SDS011;64454;51.984;9.838;2024-01-30T10:32:34;11.57;;;7.50;;
75820;SDS011;64454;51.984;9.838;2024-01-30T10:35:00;9.00;;;7.30;;
75820;SDS011;64454;51.984;9.838;2024-01-30T10:37:28;8.18;;;6.65;;
75820;SDS011;64454;51.984;9.838;2024-01-30T10:39:57;8.82;;;7.40;;
75820;SDS011;64454;51.984;9.838;2024-01-30T10:42:29;10.03;;;7.27;;
75820;SDS011;64454;51.984;9.838;2024-01-30T10:45:00;10.23;;;7.27;;
75820;SDS011;64454;51.984;9.838;2024-01-30T10:47:33;10.98;;;7.05;;
75820;SDS011;64454;51.984;9.838;2024-01-30T10:50:01;9.15;;;7.47;;
75820;SDS011;64454;51.984;9.838;2024-01-30T10:52:29;14.57;;;7.60;;
75820;SDS011;64454;51.984;9.838;2024-01-30T10:54:57;10.18;;;7.55;;
75820;SDS011;64454;51.984;9.838;2024-01-30T10:57:24;9.73;;;7.50;;
75820;SDS011;64454;51.984;9.838;2024-01-30T10:59:52;11.15;;;7.50;;
75820;SDS011;64454;51.984;9.838;2024-01-30T11:02:22;9.55;;;7.40;;
75820;SDS011;64454;51.984;9.838;2024-01-30T11:04:50;9.03;;;7.40;;
75820;SDS011;64454;51.984;9.838;2024-01-30T11:07:23;9.45;;;7.43;;
75820;SDS011;64454;51.984;9.838;2024-01-30T11:09:52;8.50;;;7.32;;
75820;SDS011;64454;51.984;9.838;2024-01-30T11:12:25;10.57;;;7.23;;
75820;SDS011;64454;51.984;9.838;2024-01-30T11:15:01;10.85;;;7.55;;
75820;SDS011;64454;51.984;9.838;2024-01-30T11:17:39;9.60;;;7.90;;
75820;SDS011;64454;51.984;9.838;2024-01-30T11:20:16;10.17;;;7.37;;
75820;SDS011;64454;51.984;9.838;2024-01-30T11:22:46;8.88;;;7.38;;
75820;SDS011;64454;51.984;9.838;2024-01-30T11:25:15;9.40;;;7.55;;
75820;SDS011;64454;51.984;9.838;2024-01-30T11:27:43;9.57;;;7.40;;
75820;SDS011;64454;51.984;9.838;2024-01-30T11:30:11;8.02;;;6.43;;
75820;SDS011;64454;51.984;9.838;2024-01-30T11:32:57;8.40;;;7.18;;
75820;SDS011;64454;51.984;9.838;2024-01-30T11:35:25;10.30;;;7.47;;
75820;SDS011;64454;51.984;9.838;2024-01-30T11:37:51;10.27;;;7.60;;
75820;SDS011;64454;51.984;9.838;2024-01-30T11:40:20;9.48;;;6.40;;
75820;SDS011;64454;51.984;9.838;2024-01-30T11:42:47;9.10;;;7.13;;
75820;SDS011;64454;51.984;9.838;2024-01-30T11:45:15;7.75;;;6.95;;
75820;SDS011;64454;51.984;9.838;2024-01-30T11:47:42;10.85;;;7.15;;
75820;SDS011;64454;51.984;9.838;2024-01-30T11:50:08;9.20;;;7.70;;
75820;SDS011;64454;51.984;9.838;2024-01-30T11:52:35;10.00;;;7.20;;
75820;SDS011;64454;51.984;9.838;2024-01-30T11:55:02;10.05;;;7.30;;
75820;SDS011;64454;51.984;9.838;2024-01-30T11:57:30;9.05;;;7.20;;
75820;SDS011;64454;51.984;9.838;2024-01-30T11:59:56;11.40;;;7.82;;
75820;SDS011;64454;51.984;9.838;2024-01-30T12:02:22;9.68;;;7.68;;
75820;SDS011;64454;51.984;9.838;2024-01-30T12:04:48;8.90;;;7.25;;
75820;SDS011;64454;51.984;9.838;2024-01-30T12:07:14;11.77;;;7.80;;
75820;SDS011;64454;51.984;9.838;2024-01-30T12:09:41;10.38;;;7.90;;
75820;SDS011;64454;51.984;9.838;2024-01-30T12:12:07;8.55;;;7.30;;
75820;SDS011;64454;51.984;9.838;2024-01-30T12:14:37;8.18;;;6.90;;
75820;SDS011;64454;51.984;9.838;2024-01-30T12:17:04;10.52;;;7.70;;
75820;SDS011;64454;51.984;9.838;2024-01-30T12:19:32;9.35;;;7.30;;
75820;SDS011;64454;51.984;9.838;2024-01-30T12:21:59;8.70;;;7.18;;
75820;SDS011;64454;51.984;9.838;2024-01-30T12:24:25;8.70;;;6.90;;
75820;SDS011;64454;51.984;9.838;2024-01-30T12:26:51;8.60;;;7.10;;
75820;SDS011;64454;51.984;9.838;2024-01-30T12:29:19;8.40;;;7.18;;
75820;SDS011;64454;51.984;9.838;2024-01-30T12:31:46;10.75;;;7.40;;
75820;SDS011;64454;51.984;9.838;2024-01-30T12:34:13;8.18;;;6.90;;
75820;SDS011;64454;51.984;9.838;2024-01-30T12:36:41;13.02;;;7.45;;
75820;SDS011;64454;51.984;9.838;2024-01-30T12:39:10;9.32;;;7.07;;
75820;SDS011;64454;51.984;9.838;2024-01-30T12:41:37;8.35;;;7.22;;
75820;SDS011;64454;51.984;9.838;2024-01-30T12:44:04;12.60;;;7.20;;
75820;SDS011;64454;51.984;9.838;2024-01-30T12:46:30;8.43;;;6.53;;
75820;SDS011;64454;51.984;9.838;2024-01-30T12:48:57;9.10;;;7.80;;
75820;SDS011;64454;51.984;9.838;2024-01-30T12:51:23;13.25;;;8.68;;
75820;SDS011;64454;51.984;9.838;2024-01-30T12:53:49;9.77;;;8.48;;
75820;SDS011;64454;51.984;9.838;2024-01-30T12:56:15;12.00;;;9.80;;
75820;SDS011;64454;51.984;9.838;2024-01-30T12:58:41;11.10;;;8.23;;
75820;SDS011;64454;51.984;9.838;2024-01-30T13:01:08;10.20;;;7.68;;
75820;SDS011;64454;51.984;9.838;2024-01-30T13:03:34;9.98;;;7.63;;
75820;SDS011;64454;51.984;9.838;2024-01-30T13:06:01;9.43;;;7.57;;
75820;SDS011;64454;51.984;9.838;2024-01-30T13:08:28;8.07;;;6.75;;
75820;SDS011;64454;51.984;9.838;2024-01-30T13:10:54;7.90;;;7.10;;
75820;SDS011;64454;51.984;9.838;2024-01-30T13:13:20;9.88;;;7.10;;
75820;SDS011;64454;51.984;9.838;2024-01-30T13:15:46;8.43;;;6.75;;
75820;SDS011;64454;51.984;9.838;2024-01-30T13:18:12;9.13;;;7.07;;
75820;SDS011;64454;51.984;9.838;2024-01-30T13:20:38;8.27;;;6.93;;
75820;SDS011;64454;51.984;9.838;2024-01-30T13:23:05;10.90;;;7.43;;
75820;SDS011;64454;51.984;9.838;2024-01-30T13:25:31;9.00;;;7.10;;
75820;SDS011;64454;51.984;9.838;2024-01-30T13:27:57;9.68;;;7.10;;
75820;SDS011;64454;51.984;9.838;2024-01-30T13:30:23;8.48;;;7.10;;
75820;SDS011;64454;51.984;9.838;2024-01-30T13:32:49;10.23;;;6.85;;
75820;SDS011;64454;51.984;9.838;2024-01-30T13:35:16;9.45;;;7.55;;
75820;SDS011;64454;51.984;9.838;2024-01-30T13:37:42;9.10;;;6.90;;
75820;SDS011;64454;51.984;9.838;2024-01-30T13:40:09;10.73;;;7.80;;
75820;SDS011;64454;51.984;9.838;2024-01-30T13:42:37;12.73;;;8.73;;
75820;SDS011;64454;51.984;9.838;2024-01-30T13:45:04;8.97;;;7.97;;
75820;SDS011;64454;51.984;9.838;2024-01-30T13:47:31;9.50;;;6.90;;
75820;SDS011;64454;51.984;9.838;2024-01-30T13:49:57;9.65;;;7.20;;
75820;SDS011;64454;51.984;9.838;2024-01-30T13:52:23;9.02;;;6.70;;
75820;SDS011;64454;51.984;9.838;2024-01-30T13:54:49;10.27;;;7.40;;
75820;SDS011;64454;51.984;9.838;2024-01-30T13:57:16;7.80;;;7.00;;
75820;SDS011;64454;51.984;9.838;2024-01-30T13:59:42;10.68;;;7.72;;
75820;SDS011;64454;51.984;9.838;2024-01-30T14:02:08;10.50;;;7.03;;
75820;SDS011;64454;51.984;9.838;2024-01-30T14:04:35;9.13;;;7.40;;
75820;SDS011;64454;51.984;9.838;2024-01-30T14:07:02;10.30;;;7.55;;
75820;SDS011;64454;51.984;9.838;2024-01-30T14:09:28;10.77;;;7.63;;
75820;SDS011;64454;51.984;9.838;2024-01-30T14:11:55;9.02;;;7.32;;
75820;SDS011;64454;51.984;9.838;2024-01-30T14:14:21;9.50;;;7.40;;
75820;SDS011;64454;51.984;9.838;2024-01-30T14:16:47;8.73;;;6.93;;
75820;SDS011;64454;51.984;9.838;2024-01-30T14:19:13;10.45;;;7.55;;
75820;SDS011;64454;51.984;9.838;2024-01-30T14:21:40;9.07;;;7.30;;
75820;SDS011;64454;51.984;9.838;2024-01-30T14:24:06;7.97;;;6.78;;
75820;SDS011;64454;51.984;9.838;2024-01-30T14:26:32;8.45;;;7.50;;
75820;SDS011;64454;51.984;9.838;2024-01-30T14:28:58;9.88;;;7.18;;
75820;SDS011;64454;51.984;9.838;2024-01-30T14:31:25;11.82;;;7.50;;
75820;SDS011;64454;51.984;9.838;2024-01-30T14:33:51;8.77;;;6.82;;
75820;SDS011;64454;51.984;9.838;2024-01-30T14:36:17;9.07;;;6.80;;
75820;SDS011;64454;51.984;9.838;2024-01-30T14:38:43;9.55;;;7.35;;
75820;SDS011;64454;51.984;9.838;2024-01-30T14:41:09;9.45;;;7.15;;
75820;SDS011;64454;51.984;9.838;2024-01-30T14:43:35;9.77;;;7.45;;